createdAt,value
2019-05-05T00:00:50.020Z,2.25
2019-05-05T00:03:28.287Z,2.22
2019-05-05T00:05:57.558Z,2.14
2019-05-05T00:08:25.247Z,2.08
2019-05-05T00:11:10.568Z,2.05
2019-05-05T00:13:40.015Z,2.03
2019-05-05T00:16:18.223Z,1.98
2019-05-05T00:18:45.875Z,1.96
2019-05-05T00:21:15.112Z,1.93
2019-05-05T00:23:44.983Z,1.91
2019-05-05T00:26:14.682Z,1.90
2019-05-05T00:28:41.936Z,1.86
2019-05-05T00:31:09.558Z,-0.13
2019-05-05T00:33:37.183Z,1.84
2019-05-05T00:36:07.758Z,1.81
2019-05-05T00:38:35.241Z,1.81
2019-05-05T00:41:05.317Z,1.78
2019-05-05T00:43:34.413Z,1.75
2019-05-05T00:46:06.503Z,1.73
2019-05-05T00:48:35.771Z,1.71
2019-05-05T00:51:04.648Z,1.69
2019-05-05T00:53:34.313Z,1.66
2019-05-05T00:56:01.775Z,1.64
2019-05-05T00:58:31.279Z,1.62
2019-05-05T01:01:17.208Z,1.61
2019-05-05T01:03:44.864Z,1.59
2019-05-05T01:06:15.105Z,1.54
2019-05-05T01:08:44.567Z,1.54
2019-05-05T01:11:14.504Z,1.51
2019-05-05T01:13:42.707Z,1.51
2019-05-05T01:16:10.351Z,1.49
2019-05-05T01:18:38.005Z,1.50
2019-05-05T01:21:05.963Z,1.47
2019-05-05T01:23:35.007Z,1.48
2019-05-05T01:26:05.046Z,1.49
2019-05-05T01:28:32.944Z,1.47
2019-05-05T01:31:02.216Z,1.45
2019-05-05T01:33:31.491Z,1.44
2019-05-05T01:35:59.308Z,1.42
2019-05-05T01:38:31.383Z,1.41
2019-05-05T01:41:06.134Z,1.40
2019-05-05T01:43:34.624Z,1.38
2019-05-05T01:46:02.445Z,1.36
2019-05-05T01:48:30.143Z,1.35
2019-05-05T01:50:57.785Z,1.36
2019-05-05T01:53:25.418Z,1.37
2019-05-05T01:55:54.245Z,1.38
2019-05-05T01:58:24.248Z,1.37
2019-05-05T02:00:51.523Z,1.39
2019-05-05T02:03:19.441Z,1.38
2019-05-05T02:05:47.098Z,1.38
2019-05-05T02:08:15.352Z,1.39
2019-05-05T02:10:45.173Z,1.39
2019-05-05T02:13:12.517Z,1.40
2019-05-05T02:15:40.138Z,1.40
2019-05-05T02:18:07.765Z,1.40
2019-05-05T02:20:39.262Z,1.39
2019-05-05T02:23:07.355Z,1.41
2019-05-05T02:25:34.990Z,1.39
2019-05-05T02:28:04.457Z,1.42
2019-05-05T02:30:39.527Z,1.41
2019-05-05T02:33:08.801Z,1.40
2019-05-05T02:35:36.500Z,1.37
2019-05-05T02:38:06.629Z,1.37
2019-05-05T02:40:35.254Z,1.35
2019-05-05T02:43:05.479Z,1.34
2019-05-05T02:45:35.292Z,1.32
2019-05-05T02:48:07.832Z,1.30
2019-05-05T02:51:01.806Z,1.28
2019-05-05T02:53:26.871Z,1.25
2019-05-05T02:55:56.000Z,1.19
2019-05-05T02:58:24.482Z,1.19
2019-05-05T03:01:00.092Z,1.16
2019-05-05T03:03:28.143Z,1.17
2019-05-05T03:05:55.826Z,1.15
2019-05-05T03:08:24.312Z,1.16
2019-05-05T03:10:53.625Z,1.16
2019-05-05T03:13:21.884Z,1.15
2019-05-05T03:15:50.901Z,1.15
2019-05-05T03:18:18.634Z,1.14
2019-05-05T03:20:46.555Z,1.14
2019-05-05T03:23:14.447Z,1.15
2019-05-05T03:25:43.958Z,1.15
2019-05-05T03:28:13.460Z,1.16
2019-05-05T03:30:40.900Z,1.15
2019-05-05T03:33:08.575Z,1.15
2019-05-05T03:35:36.680Z,1.15
2019-05-05T03:38:04.772Z,1.14
2019-05-05T03:40:34.446Z,1.14
2019-05-05T03:43:04.258Z,1.13
2019-05-05T03:45:44.491Z,1.13
2019-05-05T03:48:13.597Z,1.13
2019-05-05T03:50:41.455Z,1.10
2019-05-05T03:53:09.451Z,1.13
2019-05-05T03:55:37.170Z,1.13
2019-05-05T03:58:04.828Z,1.13
2019-05-05T04:00:52.227Z,1.14
2019-05-05T04:03:19.857Z,1.16
2019-05-05T04:05:49.107Z,1.15
2019-05-05T04:08:16.749Z,1.18
2019-05-05T04:10:44.362Z,1.21
2019-05-05T04:13:13.813Z,1.25
2019-05-05T04:15:44.196Z,1.27
2019-05-05T04:18:14.613Z,1.31
2019-05-05T04:20:44.192Z,1.35
2019-05-05T04:23:13.986Z,1.38
2019-05-05T04:25:41.083Z,1.43
2019-05-05T04:28:08.702Z,1.49
2019-05-05T04:30:36.363Z,1.53
2019-05-05T04:33:07.223Z,1.58
2019-05-05T04:35:34.927Z,1.63
2019-05-05T04:38:04.147Z,1.70
2019-05-05T04:40:31.911Z,1.75
2019-05-05T04:42:59.555Z,1.82
2019-05-05T04:45:27.198Z,1.87
2019-05-05T04:47:59.379Z,1.94
2019-05-05T04:50:28.646Z,2.00
2019-05-05T04:52:57.912Z,2.07
2019-05-05T04:55:25.542Z,2.14
2019-05-05T04:57:54.053Z,2.23
2019-05-05T05:00:24.027Z,2.33
2019-05-05T05:02:55.559Z,2.41
2019-05-05T05:05:33.822Z,2.51
2019-05-05T05:08:03.270Z,2.60
2019-05-05T05:10:31.008Z,2.69
2019-05-05T05:12:58.675Z,2.78
2019-05-05T05:15:26.916Z,2.88
2019-05-05T05:17:56.220Z,2.97
2019-05-05T05:20:24.674Z,3.06
2019-05-05T05:22:54.322Z,3.16
2019-05-05T05:25:23.901Z,3.27
2019-05-05T05:27:53.488Z,3.38
2019-05-05T05:30:20.742Z,3.49
2019-05-05T05:32:48.477Z,3.61
2019-05-05T05:35:16.216Z,3.72
2019-05-05T05:37:44.760Z,3.84
2019-05-05T05:40:20.511Z,3.96
2019-05-05T05:42:48.146Z,4.08
2019-05-05T05:45:29.355Z,4.19
2019-05-05T05:47:58.628Z,4.32
2019-05-05T05:50:27.906Z,4.44
2019-05-05T05:52:55.555Z,4.56
2019-05-05T05:55:23.772Z,4.72
2019-05-05T05:57:51.595Z,4.90
2019-05-05T06:00:19.608Z,5.05
2019-05-05T06:02:47.236Z,5.21
2019-05-05T06:05:14.909Z,5.34
2019-05-05T06:07:44.260Z,5.48
2019-05-05T06:10:23.674Z,5.63
2019-05-05T06:12:41.633Z,5.76
2019-05-05T06:15:09.552Z,5.89
2019-05-05T06:17:37.558Z,6.00
2019-05-05T06:20:06.190Z,6.14
2019-05-05T06:22:34.427Z,6.26
2019-05-05T06:25:06.120Z,6.39
2019-05-05T06:27:31.575Z,6.54
2019-05-05T06:29:59.212Z,6.68
2019-05-05T06:32:26.875Z,6.80
2019-05-05T06:34:54.518Z,6.96
2019-05-05T06:37:23.783Z,7.14
2019-05-05T06:39:54.406Z,7.26
2019-05-05T06:42:26.900Z,7.37
2019-05-05T06:44:56.167Z,7.53
2019-05-05T06:47:25.191Z,7.63
2019-05-05T06:49:54.196Z,7.79
2019-05-05T06:52:22.214Z,7.91
2019-05-05T06:54:49.847Z,8.01
2019-05-05T06:57:17.472Z,8.16
2019-05-05T06:59:45.250Z,8.28
2019-05-05T07:02:14.567Z,8.43
2019-05-05T07:04:44.700Z,8.58
2019-05-05T07:07:14.386Z,8.68
2019-05-05T07:09:44.081Z,8.78
2019-05-05T07:12:13.644Z,8.85
2019-05-05T07:14:40.743Z,9.01
2019-05-05T07:17:50.407Z,9.09
2019-05-05T07:20:18.839Z,9.05
2019-05-05T07:22:58.876Z,9.15
2019-05-05T07:25:17.490Z,9.24
2019-05-05T07:27:46.000Z,9.33
2019-05-05T07:30:14.564Z,9.39
2019-05-05T07:32:44.296Z,9.46
2019-05-05T07:35:14.887Z,9.57
2019-05-05T07:37:43.649Z,9.63
2019-05-05T07:40:13.878Z,9.84
2019-05-05T07:42:44.090Z,9.83
2019-05-05T07:45:22.087Z,9.90
2019-05-05T07:47:43.656Z,10.01
2019-05-05T07:50:27.905Z,10.09
2019-05-05T07:52:43.861Z,10.20
2019-05-05T07:55:14.260Z,10.35
2019-05-05T07:57:43.547Z,10.48
2019-05-05T08:00:14.635Z,10.65
2019-05-05T08:02:43.908Z,10.83
2019-05-05T08:05:14.107Z,11.02
2019-05-05T08:07:44.511Z,11.18
2019-05-05T08:10:13.783Z,11.30
2019-05-05T08:12:43.662Z,11.45
2019-05-05T08:15:17.239Z,11.64
2019-05-05T08:17:50.222Z,11.76
2019-05-05T08:20:20.437Z,11.92
2019-05-05T08:22:49.151Z,12.02
2019-05-05T08:25:39.348Z,12.16
2019-05-05T08:28:11.688Z,12.18
2019-05-05T08:30:54.600Z,12.14
2019-05-05T08:33:24.100Z,12.14
2019-05-05T08:35:54.112Z,12.09
2019-05-05T08:38:24.266Z,12.10
2019-05-05T08:40:54.343Z,12.16
2019-05-05T08:43:24.142Z,12.26
2019-05-05T08:45:52.722Z,12.33
2019-05-05T08:53:54.590Z,12.35
2019-05-05T08:56:23.863Z,12.16
2019-05-05T08:58:54.343Z,12.35
2019-05-05T09:01:23.777Z,12.50
2019-05-05T09:03:53.530Z,12.62
2019-05-05T09:06:24.022Z,12.78
2019-05-05T09:08:52.189Z,13.10
2019-05-05T09:11:20.627Z,13.26
2019-05-05T09:13:49.221Z,13.49
2019-05-05T09:16:17.804Z,13.77
2019-05-05T09:18:59.680Z,14.11
2019-05-05T09:21:28.136Z,14.47
2019-05-05T09:24:02.370Z,14.75
2019-05-05T09:26:45.357Z,15.19
2019-05-05T09:29:21.184Z,15.45
2019-05-05T09:31:49.617Z,15.91
2019-05-05T09:34:18.138Z,15.98
2019-05-05T09:36:46.918Z,16.18
2019-05-05T09:39:15.374Z,16.02
2019-05-05T09:41:44.608Z,15.93
2019-05-05T09:44:13.651Z,15.75
2019-05-05T09:46:42.181Z,15.55
2019-05-05T09:49:10.899Z,15.36
2019-05-05T09:51:39.316Z,15.25
2019-05-05T09:54:14.167Z,15.22
2019-05-05T09:56:38.217Z,15.35
2019-05-05T09:59:06.665Z,15.59
2019-05-05T10:01:35.271Z,15.81
2019-05-05T10:04:10.751Z,15.80
2019-05-05T10:06:41.354Z,15.80
2019-05-05T10:09:13.632Z,15.67
2019-05-05T10:11:41.739Z,15.30
2019-05-05T10:14:10.236Z,15.00
2019-05-05T10:16:38.730Z,14.66
2019-05-05T10:19:07.230Z,14.46
2019-05-05T10:21:35.660Z,14.31
2019-05-05T10:24:08.920Z,14.20
2019-05-05T10:26:37.454Z,13.99
2019-05-05T10:29:05.886Z,13.96
2019-05-05T10:31:34.644Z,13.88
2019-05-05T10:34:17.006Z,13.78
2019-05-05T10:36:45.567Z,13.68
2019-05-05T10:39:15.651Z,13.66
2019-05-05T10:41:44.210Z,13.60
2019-05-05T10:44:14.140Z,13.64
2019-05-05T10:46:43.039Z,13.55
2019-05-05T10:49:13.600Z,13.53
2019-05-05T10:51:43.825Z,13.52
2019-05-05T10:54:11.765Z,13.50
2019-05-05T10:56:40.420Z,13.57
2019-05-05T10:59:08.846Z,13.64
2019-05-05T11:01:37.283Z,13.68
2019-05-05T11:04:05.725Z,13.71
2019-05-05T11:06:34.898Z,13.79
2019-05-05T11:09:05.329Z,13.79
2019-05-05T11:11:34.384Z,13.87
2019-05-05T11:14:03.751Z,14.29
2019-05-05T11:16:32.302Z,14.13
2019-05-05T11:19:01.434Z,14.06
2019-05-05T11:21:30.009Z,14.10
2019-05-05T11:23:58.548Z,14.11
2019-05-05T11:26:26.981Z,14.14
2019-05-05T11:28:55.418Z,14.07
2019-05-05T11:31:24.283Z,14.13
2019-05-05T11:33:57.369Z,14.21
2019-05-05T11:36:27.466Z,14.26
2019-05-05T11:38:55.908Z,14.28
2019-05-05T11:41:24.555Z,14.31
2019-05-05T11:43:53.507Z,14.34
2019-05-05T11:46:24.551Z,14.38
2019-05-05T11:48:54.411Z,14.66
2019-05-05T11:51:24.793Z,14.89
2019-05-05T11:53:54.025Z,15.18
2019-05-05T11:56:22.543Z,15.47
2019-05-05T11:58:50.987Z,15.70
2019-05-05T12:01:21.215Z,15.89
2019-05-05T12:03:49.681Z,16.00
2019-05-05T12:06:18.103Z,16.10
2019-05-05T12:08:46.737Z,16.24
2019-05-05T12:11:15.289Z,16.27
2019-05-05T12:13:43.967Z,16.45
2019-05-05T12:16:14.051Z,16.52
2019-05-05T12:18:44.216Z,16.45
2019-05-05T12:21:14.010Z,16.50
2019-05-05T12:23:44.438Z,16.47
2019-05-05T12:26:20.722Z,16.36
2019-05-05T12:28:50.804Z,16.16
2019-05-05T12:31:20.901Z,15.96
2019-05-05T12:33:49.482Z,15.79
2019-05-05T12:36:17.923Z,15.59
2019-05-05T12:38:46.344Z,15.36
2019-05-05T12:41:14.964Z,15.25
2019-05-05T12:43:44.239Z,15.13
2019-05-05T12:46:17.263Z,14.98
2019-05-05T12:48:47.343Z,14.86
2019-05-05T12:51:15.761Z,14.88
2019-05-05T12:53:44.197Z,14.84
2019-05-05T12:56:14.469Z,14.81
2019-05-05T12:58:43.992Z,14.93
2019-05-05T13:01:14.410Z,14.99
2019-05-05T13:03:43.790Z,15.09
2019-05-05T13:06:14.477Z,15.28
2019-05-05T13:08:44.410Z,15.23
2019-05-05T13:11:12.947Z,15.29
2019-05-05T13:13:41.385Z,15.44
2019-05-05T13:16:09.948Z,15.40
2019-05-05T13:18:38.851Z,15.51
2019-05-05T13:21:11.721Z,15.56
2019-05-05T13:23:44.548Z,15.67
2019-05-05T13:26:14.599Z,15.63
2019-05-05T13:28:43.740Z,15.61
2019-05-05T13:31:13.940Z,15.58
2019-05-05T13:33:41.718Z,15.55
2019-05-05T13:36:10.097Z,16.04
2019-05-05T13:38:39.420Z,15.76
2019-05-05T13:41:07.859Z,15.79
2019-05-05T13:43:36.279Z,16.00
2019-05-05T13:46:21.395Z,16.03
2019-05-05T13:48:49.821Z,16.11
2019-05-05T13:51:19.912Z,16.19
2019-05-05T13:53:48.331Z,16.27
2019-05-05T13:56:16.759Z,16.42
2019-05-05T13:58:45.186Z,16.53
2019-05-05T14:01:14.532Z,16.51
2019-05-05T14:03:44.764Z,16.39
2019-05-05T14:06:13.801Z,16.32
2019-05-05T14:08:44.629Z,16.18
2019-05-05T14:11:14.076Z,16.10
2019-05-05T14:13:42.013Z,16.50
2019-05-05T14:16:10.431Z,15.97
2019-05-05T14:18:38.878Z,15.69
2019-05-05T14:21:07.329Z,15.45
2019-05-05T14:23:37.459Z,15.26
2019-05-05T14:26:05.883Z,15.15
2019-05-05T14:28:34.507Z,15.01
2019-05-05T14:31:05.202Z,14.93
2019-05-05T14:33:35.276Z,14.85
2019-05-05T14:36:05.363Z,14.85
2019-05-05T14:38:44.464Z,14.91
2019-05-05T14:41:13.605Z,15.07
2019-05-05T14:43:43.848Z,15.06
2019-05-05T14:46:14.385Z,15.22
2019-05-05T14:48:44.107Z,15.21
2019-05-05T14:51:14.535Z,15.09
2019-05-05T14:53:43.768Z,15.09
2019-05-05T14:56:13.583Z,15.00
2019-05-05T14:58:41.455Z,14.90
2019-05-05T15:01:09.821Z,15.25
2019-05-05T15:03:38.252Z,14.78
2019-05-05T15:06:17.528Z,14.54
2019-05-05T15:08:46.187Z,14.28
2019-05-05T15:11:16.259Z,13.99
2019-05-05T15:13:44.849Z,13.99
2019-05-05T15:16:13.997Z,13.94
2019-05-05T15:18:42.533Z,13.84
2019-05-05T15:21:10.967Z,13.80
2019-05-05T15:23:39.580Z,13.86
2019-05-05T15:26:08.673Z,13.98
2019-05-05T15:28:37.119Z,14.18
2019-05-05T15:31:05.632Z,14.42
2019-05-05T15:33:35.025Z,14.42
2019-05-05T15:36:04.453Z,14.49
2019-05-05T15:38:34.827Z,14.49
2019-05-05T15:41:03.923Z,14.61
2019-05-05T15:43:33.521Z,14.55
2019-05-05T15:46:02.035Z,14.60
2019-05-05T15:48:30.498Z,14.61
2019-05-05T15:50:59.081Z,14.56
2019-05-05T15:53:27.521Z,14.49
2019-05-05T15:55:56.167Z,14.49
2019-05-05T15:58:24.605Z,14.27
2019-05-05T16:00:53.941Z,14.16
2019-05-05T16:03:22.812Z,13.99
2019-05-05T16:05:51.259Z,13.97
2019-05-05T16:08:19.700Z,13.87
2019-05-05T16:10:48.136Z,13.95
2019-05-05T16:13:16.556Z,13.89
2019-05-05T16:15:46.647Z,13.83
2019-05-05T16:18:16.733Z,13.86
2019-05-05T16:20:46.813Z,13.88
2019-05-05T16:23:19.854Z,13.90
2019-05-05T16:25:48.340Z,13.87
2019-05-05T16:28:16.782Z,14.01
2019-05-05T16:30:45.467Z,14.03
2019-05-05T16:33:14.176Z,14.03
2019-05-05T16:35:43.735Z,14.05
2019-05-05T16:38:14.681Z,14.03
2019-05-05T16:40:44.317Z,14.00
2019-05-05T16:43:16.238Z,13.96
2019-05-05T16:45:44.468Z,13.89
2019-05-05T16:48:13.059Z,13.83
2019-05-05T16:50:43.906Z,13.73
2019-05-05T16:53:14.071Z,13.69
2019-05-05T16:55:44.913Z,13.59
2019-05-05T16:58:14.025Z,13.53
2019-05-05T17:00:44.145Z,13.55
2019-05-05T17:03:13.465Z,12.50
2019-05-05T17:05:44.078Z,13.37
2019-05-05T17:08:13.987Z,13.33
2019-05-05T17:10:43.506Z,13.31
2019-05-05T17:13:15.356Z,13.33
2019-05-05T17:15:48.480Z,13.37
2019-05-05T17:18:32.619Z,13.30
2019-05-05T17:21:01.764Z,13.26
2019-05-05T17:23:30.178Z,13.26
2019-05-05T17:25:58.627Z,13.16
2019-05-05T17:28:27.058Z,13.03
2019-05-05T17:30:55.475Z,12.91
2019-05-05T17:33:24.197Z,12.14
2019-05-05T17:35:53.966Z,12.44
2019-05-05T17:38:24.324Z,12.11
2019-05-05T17:40:54.301Z,11.93
2019-05-05T17:43:30.605Z,11.66
2019-05-05T17:46:00.679Z,11.39
2019-05-05T17:48:36.422Z,11.08
2019-05-05T17:51:13.746Z,10.95
2019-05-05T17:53:49.802Z,10.81
2019-05-05T17:56:18.260Z,10.65
2019-05-05T17:58:46.722Z,10.55
2019-05-05T18:01:15.164Z,10.48
2019-05-05T18:03:43.738Z,10.34
2019-05-05T18:06:25.863Z,10.27
2019-05-05T18:09:01.921Z,10.28
2019-05-05T18:11:50.305Z,10.25
2019-05-05T18:14:36.250Z,10.29
2019-05-05T18:17:04.676Z,10.31
2019-05-05T18:19:33.995Z,10.37
2019-05-05T18:22:02.506Z,10.43
2019-05-05T18:24:30.949Z,10.48
2019-05-05T18:26:59.391Z,10.51
2019-05-05T18:29:27.840Z,10.48
2019-05-05T18:31:56.279Z,10.47
2019-05-05T18:34:24.705Z,10.44
2019-05-05T18:36:54.474Z,10.41
2019-05-05T18:39:24.697Z,10.35
2019-05-05T18:41:54.909Z,10.26
2019-05-05T18:44:30.823Z,10.17
2019-05-05T18:47:18.501Z,10.11
2019-05-05T18:49:46.777Z,9.98
2019-05-05T18:52:15.204Z,9.89
2019-05-05T18:54:43.841Z,9.87
2019-05-05T18:57:12.353Z,9.81
2019-05-05T18:59:40.867Z,9.64
2019-05-05T19:02:10.947Z,9.57
2019-05-05T19:04:56.733Z,9.47
2019-05-05T19:07:29.482Z,9.43
2019-05-05T19:09:57.916Z,9.38
2019-05-05T19:12:26.414Z,8.87
2019-05-05T19:14:55.104Z,9.26
2019-05-05T19:17:23.688Z,9.22
2019-05-05T19:19:54.826Z,9.15
2019-05-05T19:22:23.482Z,9.08
2019-05-05T19:24:51.907Z,8.68
2019-05-05T19:27:20.328Z,8.92
2019-05-05T19:29:48.779Z,8.83
2019-05-05T19:32:17.641Z,8.77
2019-05-05T19:34:46.062Z,8.68
2019-05-05T19:37:14.504Z,8.62
2019-05-05T19:39:42.943Z,8.55
2019-05-05T19:42:11.452Z,8.51
2019-05-05T19:44:39.888Z,8.46
2019-05-05T19:47:20.894Z,8.24
2019-05-05T19:49:50.955Z,8.36
2019-05-05T19:52:19.383Z,8.30
2019-05-05T19:54:47.821Z,8.27
2019-05-05T19:57:16.243Z,8.23
2019-05-05T19:59:44.862Z,8.17
2019-05-05T20:02:13.289Z,8.13
2019-05-05T20:04:41.723Z,8.10
2019-05-05T20:07:10.144Z,8.05
2019-05-05T20:09:38.574Z,7.99
2019-05-05T20:12:07.305Z,7.96
2019-05-05T20:14:35.754Z,7.91
2019-05-05T20:17:14.933Z,7.87
2019-05-05T20:19:44.285Z,7.87
2019-05-05T20:22:14.594Z,7.87
2019-05-05T20:24:44.346Z,7.85
2019-05-05T20:27:13.985Z,7.84
2019-05-05T20:29:42.589Z,7.86
2019-05-05T20:32:11.014Z,7.85
2019-05-05T20:34:41.081Z,7.84
2019-05-05T20:37:11.383Z,7.82
2019-05-05T20:39:39.059Z,7.83
2019-05-05T20:42:08.470Z,8.09
2019-05-05T20:44:37.740Z,7.83
2019-05-05T20:47:06.216Z,7.82
2019-05-05T20:49:35.079Z,7.79
2019-05-05T20:52:03.912Z,7.78
2019-05-05T20:54:32.365Z,7.74
2019-05-05T20:57:00.842Z,7.73
2019-05-05T20:59:31.147Z,5.85
2019-05-05T21:01:59.423Z,7.64
2019-05-05T21:04:27.854Z,7.59
2019-05-05T21:06:56.281Z,7.53
2019-05-05T21:09:24.938Z,7.50
2019-05-05T21:11:54.758Z,7.45
2019-05-05T21:14:33.663Z,7.41
2019-05-05T21:16:54.726Z,7.35
2019-05-05T21:19:24.605Z,7.33
2019-05-05T21:21:54.514Z,7.56
2019-05-05T21:24:23.968Z,7.30
2019-05-05T21:26:53.986Z,7.51
2019-05-05T21:29:23.711Z,7.27
2019-05-05T21:31:54.819Z,7.23
2019-05-05T21:34:24.832Z,7.21
2019-05-05T21:36:54.026Z,7.16
2019-05-05T21:39:24.758Z,7.12
2019-05-05T21:41:53.089Z,7.14
2019-05-05T21:44:21.544Z,7.14
2019-05-05T21:46:50.066Z,7.12
2019-05-05T21:49:18.513Z,7.15
2019-05-05T21:51:48.603Z,7.18
2019-05-05T21:54:34.566Z,7.22
2019-05-05T21:57:07.537Z,7.27
2019-05-05T21:59:36.278Z,7.29
2019-05-05T22:02:05.412Z,7.32
2019-05-05T22:04:33.972Z,7.39
2019-05-05T22:07:03.735Z,7.50
2019-05-05T22:09:32.575Z,7.52
2019-05-05T22:12:01.075Z,7.61
2019-05-05T22:14:29.614Z,7.67
2019-05-05T22:16:58.027Z,7.74
2019-05-05T22:19:28.094Z,7.75
2019-05-05T22:21:58.166Z,7.79
2019-05-05T22:24:26.589Z,7.82
2019-05-05T22:26:55.015Z,7.80
2019-05-05T22:29:24.936Z,7.78
2019-05-05T22:31:53.804Z,7.75
2019-05-05T22:34:24.112Z,7.73
2019-05-05T22:36:52.398Z,7.64
2019-05-05T22:39:20.944Z,7.57
2019-05-05T22:41:49.452Z,7.48
2019-05-05T22:44:17.932Z,7.38
2019-05-05T22:46:46.404Z,7.30
2019-05-05T22:49:15.096Z,7.24
2019-05-05T22:51:44.758Z,7.15
2019-05-05T22:54:15.013Z,7.09
2019-05-05T22:56:44.810Z,7.07
2019-05-05T22:59:13.930Z,7.00
2019-05-05T23:01:42.539Z,6.92
2019-05-05T23:04:24.398Z,6.85
2019-05-05T23:06:54.478Z,6.81
2019-05-05T23:09:22.718Z,6.79
2019-05-05T23:11:51.083Z,7.00
2019-05-05T23:14:28.403Z,6.76
2019-05-05T23:17:12.227Z,6.75
2019-05-05T23:19:48.256Z,6.67
2019-05-05T23:22:27.722Z,6.68
2019-05-05T23:25:04.112Z,6.66
2019-05-05T23:27:48.739Z,6.64
2019-05-05T23:30:19.845Z,6.67
2019-05-05T23:32:48.467Z,6.69
2019-05-05T23:35:17.683Z,6.67
2019-05-05T23:37:46.550Z,6.72
2019-05-05T23:40:24.750Z,6.72
2019-05-05T23:42:54.064Z,6.74
2019-05-05T23:45:24.734Z,6.74
2019-05-05T23:47:54.387Z,6.77
2019-05-05T23:50:23.610Z,6.72
2019-05-05T23:52:54.169Z,6.71
2019-05-05T23:55:23.996Z,6.67
2019-05-05T23:57:54.517Z,6.63
